Time;durP1;ratioP1;P1;durP2;ratioP2;P2;SDS_P1;SDS_P2;PMS_P1;PMS_P2;Temp;Humidity;BMP_temperature;BMP_pressure;BME280_temperature;BME280_humidity;BME280_pressure;Samples;Min_cycle;Max_cycle;Signal;HPM_P1;HPM_P2
2021/07/22 18:49:58;;;;;;;;;12.00;12.00;;;;;28.08;40.82;101749.09;5096022;27;45909;-68
2021/07/22 18:52:24;;;;;;;;;13.50;11.25;;;;;28.02;40.62;101745.38;5074030;27;45592;-68
2021/07/22 18:54:50;;;;;;;;;13.00;12.25;;;;;27.98;41.01;101738.75;5086254;27;45410;-79
2021/07/22 18:57:16;;;;;;;;;11.25;10.75;;;;;28.10;40.51;101752.41;5080328;27;45532;-80
2021/07/22 18:59:41;;;;;;;;;11.00;11.00;;;;;28.11;40.31;101747.84;5080824;27;45742;-74
2021/07/22 19:02:07;;;;;;;;;12.75;12.00;;;;;28.12;40.65;101761.06;5085173;27;47093;-75
2021/07/22 19:04:32;;;;;;;;;14.00;11.00;;;;;28.10;40.61;101762.28;5076038;27;45342;-77
2021/07/22 19:06:58;;;;;;;;;9.25;9.25;;;;;27.98;40.50;101740.59;5078524;27;45307;-77
2021/07/22 19:09:24;;;;;;;;;10.00;10.00;;;;;27.78;40.74;101719.94;5086930;27;45420;-78
2021/07/22 19:11:50;;;;;;;;;12.75;10.25;;;;;27.91;40.43;101740.59;5077139;27;45584;-83
2021/07/22 19:14:15;;;;;;;;;12.00;10.25;;;;;27.91;40.63;101746.75;5082762;27;45501;-78
2021/07/22 19:16:41;;;;;;;;;13.25;12.00;;;;;27.93;41.01;101750.06;5087513;27;45553;-76
2021/07/22 19:19:08;;;;;;;;;10.50;9.25;;;;;27.89;40.38;101754.16;5080657;27;47092;-77
2021/07/22 19:21:34;;;;;;;;;10.00;9.00;;;;;27.72;40.60;101741.09;5081085;27;45346;-75
2021/07/22 19:23:59;;;;;;;;;12.50;12.00;;;;;27.71;40.71;101741.28;5089237;27;45473;-79
2021/07/22 19:26:26;;;;;;;;;11.00;10.50;;;;;27.63;41.45;101736.94;5081529;27;45572;-74
2021/07/22 19:28:52;;;;;;;;;10.25;10.00;;;;;27.67;41.33;101762.25;5079392;27;46340;-74
2021/07/22 19:31:17;;;;;;;;;12.25;12.25;;;;;27.52;41.09;101746.31;5088045;27;45400;-75
2021/07/22 19:33:42;;;;;;;;;12.50;11.75;;;;;27.50;41.08;101751.88;5080268;27;45524;-76
2021/07/22 19:36:08;;;;;;;;;10.00;9.50;;;;;27.47;41.56;101752.25;5081768;27;45417;-79
2021/07/22 19:38:33;;;;;;;;;12.50;8.75;;;;;27.35;41.34;101743.94;5076772;27;46294;-79
2021/07/22 19:40:59;;;;;;;;;10.50;10.50;;;;;27.28;41.53;101729.72;5074685;27;45548;-80
2021/07/22 19:43:24;;;;;;;;;8.75;8.75;;;;;27.40;41.81;101751.41;5074092;27;45724;-80
2021/07/22 19:45:50;;;;;;;;;10.50;9.50;;;;;27.39;41.85;101749.72;5078159;27;45558;-79
2021/07/22 19:48:16;;;;;;;;;10.75;10.25;;;;;27.33;41.51;101746.00;5094747;27;47254;-80
2021/07/22 19:50:42;;;;;;;;;13.50;12.50;;;;;27.26;41.37;101748.63;5078624;27;45497;-74
2021/07/22 19:53:10;;;;;;;;;13.25;11.00;;;;;27.24;41.97;101748.00;5079526;27;45486;-79
2021/07/22 19:55:36;;;;;;;;;10.75;10.75;;;;;27.07;42.15;101726.03;5076820;27;45532;-76
2021/07/22 19:58:01;;;;;;;;;9.25;9.25;;;;;27.18;41.73;101757.59;5080579;27;47508;-74
2021/07/22 20:00:28;;;;;;;;;9.25;9.00;;;;;27.13;41.78;101753.84;5070862;27;45461;-75
2021/07/22 20:02:54;;;;;;;;;10.75;10.75;;;;;27.14;42.26;101764.34;5065722;27;45493;-82
2021/07/22 20:05:20;;;;;;;;;12.25;10.25;;;;;27.06;42.04;101754.59;5072027;27;45380;-78
2021/07/22 20:07:47;;;;;;;;;10.75;9.75;;;;;27.15;41.95;101766.00;5071310;27;45488;-75
2021/07/22 20:10:13;;;;;;;;;8.00;8.00;;;;;27.14;42.59;101761.66;5066748;27;45520;-74
2021/07/22 20:12:40;;;;;;;;;9.75;9.75;;;;;27.15;41.91;101759.81;5062367;27;45546;-74
2021/07/22 20:15:07;;;;;;;;;9.00;9.00;;;;;27.20;42.00;101754.72;5067127;28;45465;-74
2021/07/22 20:17:34;;;;;;;;;11.75;9.25;;;;;27.38;42.48;101777.47;5070031;27;46599;-76
2021/07/22 20:20:01;;;;;;;;;12.75;9.50;;;;;27.43;42.23;101775.03;5066634;27;45568;-76
2021/07/22 20:22:27;;;;;;;;;8.00;8.00;;;;;27.51;41.91;101774.06;5064818;27;45348;-76
2021/07/22 20:24:53;;;;;;;;;11.00;11.00;;;;;27.56;42.43;101768.16;5062269;27;45556;-76
2021/07/22 20:27:19;;;;;;;;;10.75;10.75;;;;;27.61;42.27;101781.75;5071494;28;45461;-77
2021/07/22 20:29:46;;;;;;;;;9.75;9.75;;;;;27.60;42.33;101766.72;5058338;28;45549;-75
2021/07/22 20:32:12;;;;;;;;;7.75;7.75;;;;;27.69;42.38;101778.09;5063190;28;45445;-76
2021/07/22 20:34:39;;;;;;;;;11.75;11.50;;;;;27.72;42.06;101780.34;5063454;27;45458;-74
2021/07/22 20:37:05;;;;;;;;;12.25;10.75;;;;;27.75;42.18;101782.66;5081203;27;45460;-77
2021/07/22 20:39:31;;;;;;;;;12.50;10.00;;;;;27.77;41.43;101771.75;5068740;28;45400;-76
2021/07/22 20:41:57;;;;;;;;;10.25;10.25;;;;;27.80;41.37;101777.56;5074334;28;45519;-74
2021/07/22 20:44:23;;;;;;;;;8.00;8.00;;;;;27.83;41.63;101779.00;5066654;27;45623;-77
2021/07/22 20:46:48;;;;;;;;;11.50;11.50;;;;;27.81;41.99;101776.56;5068477;28;46252;-74
2021/07/22 20:49:14;;;;;;;;;15.25;8.75;;;;;27.78;41.73;101768.06;5066551;27;45471;-74
2021/07/22 20:51:41;;;;;;;;;10.00;8.50;;;;;27.87;41.41;101774.91;5062535;27;45458;-75
2021/07/22 20:54:11;;;;;;;;;9.50;8.75;;;;;27.82;41.30;101764.81;5063633;27;45485;-75
2021/07/22 20:56:38;;;;;;;;;10.00;9.50;;;;;27.88;41.76;101784.59;5058765;27;45651;-76
2021/07/22 20:59:04;;;;;;;;;8.50;8.50;;;;;27.91;41.10;101781.53;5065541;27;45420;-75
2021/07/22 21:01:31;;;;;;;;;11.25;9.75;;;;;27.83;40.98;101761.13;5071961;28;45516;-75
2021/07/22 21:04:03;;;;;;;;;9.75;8.00;;;;;27.92;41.00;101774.34;5062220;27;45456;-74
2021/07/22 21:06:30;;;;;;;;;7.50;7.50;;;;;27.95;41.46;101777.44;5066695;28;45410;-74
2021/07/22 21:08:56;;;;;;;;;7.00;7.00;;;;;27.93;40.78;101763.44;5061107;28;45492;-75
2021/07/22 21:11:22;;;;;;;;;8.75;7.75;;;;;27.95;41.21;101773.91;5058733;28;45395;-77
2021/07/22 21:13:47;;;;;;;;;9.00;9.00;;;;;27.94;41.29;101764.25;5063115;27;45323;-76
2021/07/22 21:16:13;;;;;;;;;11.50;10.00;;;;;27.72;40.78;101743.75;5061322;28;45236;-76
2021/07/22 21:18:38;;;;;;;;;11.00;9.50;;;;;27.95;41.50;101769.41;5063732;28;45328;-75
2021/07/22 21:21:04;;;;;;;;;8.25;8.00;;;;;27.92;41.16;101763.63;5069627;28;45467;-74
2021/07/22 21:23:30;;;;;;;;;9.50;8.75;;;;;27.96;41.34;101765.72;5068882;28;45524;-76
2021/07/22 21:25:58;;;;;;;;;13.50;11.00;;;;;27.96;41.39;101768.38;5064423;28;47336;-75
2021/07/22 21:28:23;;;;;;;;;8.75;8.75;;;;;27.70;41.27;101718.25;5060850;27;45252;-77
2021/07/22 21:30:49;;;;;;;;;9.25;9.25;;;;;27.74;41.29;101724.84;5064943;27;45421;-78
2021/07/22 21:33:17;;;;;;;;;9.50;8.25;;;;;27.90;40.66;101758.47;5061362;28;45669;-77
2021/07/22 21:35:43;;;;;;;;;10.50;9.00;;;;;27.92;41.00;101758.28;5061367;28;45470;-75
2021/07/22 21:38:10;;;;;;;;;10.00;9.50;;;;;27.98;41.22;101764.69;5064050;28;45470;-75
2021/07/22 21:40:36;;;;;;;;;8.00;8.00;;;;;27.96;41.07;101757.69;5069078;27;45528;-76
2021/07/22 21:43:02;;;;;;;;;10.25;10.00;;;;;27.98;40.62;101759.31;5066800;28;45734;-74
2021/07/22 21:45:29;;;;;;;;;10.75;10.75;;;;;27.97;40.60;101750.50;5068937;27;45623;-78
2021/07/22 21:47:55;;;;;;;;;8.25;8.25;;;;;27.93;41.19;101752.75;5062180;28;45380;-77
2021/07/22 21:50:20;;;;;;;;;9.25;8.75;;;;;27.96;40.79;101764.88;5063266;28;45530;-75
2021/07/22 21:52:46;;;;;;;;;11.00;8.75;;;;;27.98;40.51;101759.31;5067358;28;45291;-76
2021/07/22 21:55:12;;;;;;;;;13.25;10.50;;;;;27.97;40.50;101753.19;5067157;27;47060;-74
2021/07/22 21:57:37;;;;;;;;;8.00;7.50;;;;;27.92;41.17;101745.72;5060091;27;45513;-74
2021/07/22 22:00:08;;;;;;;;;8.75;8.00;;;;;27.94;40.64;101767.78;5069556;27;45239;-78
2021/07/22 22:02:35;;;;;;;;;8.00;7.00;;;;;27.92;40.67;101767.13;5065710;27;45632;-76
2021/07/22 22:05:00;;;;;;;;;8.25;8.25;;;;;27.88;40.64;101760.53;5065503;28;46651;-78
2021/07/22 22:07:27;;;;;;;;;10.75;10.25;;;;;27.91;40.52;101767.31;5069126;27;45531;-73
2021/07/22 22:09:52;;;;;;;;;10.00;10.00;;;;;27.90;41.16;101760.31;5072924;27;45559;-76
2021/07/22 22:12:53;;;;;;;;;8.25;8.25;;;;;27.44;40.47;101699.19;5068679;27;45689;-76
2021/07/22 22:15:19;;;;;;;;;11.00;11.00;;;;;27.85;40.86;101758.25;5165989;22;48085;-74
2021/07/22 22:17:44;;;;;;;;;9.00;9.00;;;;;27.87;40.84;101764.22;5029961;28;45465;-74
2021/07/22 22:20:10;;;;;;;;;11.25;10.00;;;;;27.85;40.94;101769.78;5030029;28;45516;-74
2021/07/22 22:22:36;;;;;;;;;9.25;8.00;;;;;27.71;40.65;101743.97;5030006;28;45660;-74
2021/07/22 22:25:02;;;;;;;;;8.50;8.50;;;;;27.81;41.15;101762.34;5031627;28;45574;-74
2021/07/22 22:27:28;;;;;;;;;10.25;9.50;;;;;27.82;41.03;101756.78;5028236;28;45452;-74
2021/07/22 22:29:56;;;;;;;;;11.25;9.50;;;;;27.81;40.52;101757.00;5029334;28;45336;-74
2021/07/22 22:32:25;;;;;;;;;12.50;10.00;;;;;27.80;41.05;101760.69;5028580;28;45511;-74
2021/07/22 22:34:55;;;;;;;;;9.25;8.75;;;;;27.79;40.68;101764.38;5026097;28;46611;-75
2021/07/22 22:37:21;;;;;;;;;10.50;9.50;;;;;27.78;40.88;101765.38;5029473;28;45522;-75
2021/07/22 22:39:47;;;;;;;;;10.25;10.25;;;;;27.77;40.77;101763.72;5031428;28;45352;-76
2021/07/22 22:42:16;;;;;;;;;11.00;8.75;;;;;27.74;40.48;101762.25;5022817;28;45649;-75
2021/07/22 22:44:42;;;;;;;;;10.25;9.25;;;;;27.71;40.72;101770.69;5029299;28;45462;-75
2021/07/22 22:47:08;;;;;;;;;9.75;8.00;;;;;27.62;40.30;101753.97;5035179;28;45437;-75
2021/07/22 22:49:33;;;;;;;;;9.75;9.75;;;;;27.46;40.38;101736.41;5029270;28;45473;-75
2021/07/22 22:51:58;;;;;;;;;11.00;9.25;;;;;27.59;41.01;101765.88;5029602;28;45570;-75
2021/07/22 22:54:25;;;;;;;;;12.50;11.75;;;;;27.66;41.08;101784.66;5033543;28;45973;-74
2021/07/22 22:56:50;;;;;;;;;12.25;12.00;;;;;27.74;41.00;101776.47;5034533;28;45442;-73
2021/07/22 22:59:16;;;;;;;;;10.75;10.75;;;;;27.83;41.49;101776.34;5033852;28;45564;-74
2021/07/22 23:01:47;;;;;;;;;10.25;9.25;;;;;27.78;40.87;101755.53;5033272;28;45451;-73
2021/07/22 23:04:12;;;;;;;;;10.00;10.00;;;;;28.00;40.82;101776.03;5033378;28;45509;-73
2021/07/22 23:06:38;;;;;;;;;10.50;9.75;;;;;28.06;41.40;101769.84;5034604;28;45333;-73
2021/07/22 23:09:04;;;;;;;;;9.50;8.50;;;;;28.14;40.95;101767.03;5033112;28;45777;-74
2021/07/22 23:11:29;;;;;;;;;10.25;10.25;;;;;28.20;41.23;101768.06;5034351;28;45441;-74
2021/07/22 23:13:55;;;;;;;;;8.50;7.00;;;;;28.25;41.47;101767.47;5034618;28;46033;-73
2021/07/22 23:16:22;;;;;;;;;11.00;11.00;;;;;28.27;41.40;101758.22;5061743;28;46112;-73
2021/07/22 23:18:48;;;;;;;;;12.00;11.00;;;;;28.36;40.78;101766.06;5070501;28;45335;-73
2021/07/22 23:21:14;;;;;;;;;11.00;11.00;;;;;28.38;41.57;101755.97;5074908;28;45680;-73
2021/07/22 23:23:40;;;;;;;;;11.00;9.00;;;;;28.46;41.00;101771.88;5074215;28;46206;-73
2021/07/22 23:26:06;;;;;;;;;9.00;8.00;;;;;28.47;41.35;101760.13;5074321;28;45284;-74
2021/07/22 23:28:32;;;;;;;;;8.00;8.00;;;;;28.51;40.82;101760.56;5074585;27;45542;-74
2021/07/22 23:30:57;;;;;;;;;12.00;11.50;;;;;28.58;40.75;101768.59;5074637;28;45455;-75
2021/07/22 23:33:22;;;;;;;;;9.25;8.75;;;;;28.61;41.17;101760.19;5074470;28;47067;-75
2021/07/22 23:35:48;;;;;;;;;9.00;9.00;;;;;28.55;40.56;101752.97;5076435;28;48144;-74
2021/07/22 23:38:13;;;;;;;;;8.75;8.75;;;;;28.67;41.04;101770.09;5078075;28;45564;-74
2021/07/22 23:40:39;;;;;;;;;9.75;8.00;;;;;28.65;40.86;101749.91;5078157;28;45522;-72
2021/07/22 23:43:04;;;;;;;;;9.00;9.00;;;;;28.67;40.62;101751.34;5078094;28;46032;-74
2021/07/22 23:45:29;;;;;;;;;8.75;8.75;;;;;28.72;40.86;101745.38;5075293;28;45608;-73
2021/07/22 23:47:57;;;;;;;;;11.75;8.75;;;;;28.77;40.62;101763.50;5077248;28;45439;-74
2021/07/22 23:50:24;;;;;;;;;12.50;10.75;;;;;28.78;40.69;101754.44;5077797;27;45484;-74
2021/07/22 23:52:49;;;;;;;;;9.25;9.25;;;;;28.78;41.20;101749.88;5077576;28;46227;-73
2021/07/22 23:55:14;;;;;;;;;9.25;9.00;;;;;28.72;40.87;101738.16;5059316;28;46013;-74
2021/07/22 23:57:40;;;;;;;;;8.25;8.25;;;;;28.73;40.74;101737.13;5077139;28;45505;-74
